createdAt,value
2022-07-30T00:01:44.241Z,66.21
2022-07-30T00:04:10.953Z,66.79
2022-07-30T00:06:40.066Z,66.68
2022-07-30T00:09:06.812Z,66.91
2022-07-30T00:11:33.691Z,66.95
2022-07-30T00:14:00.433Z,67.56
2022-07-30T00:16:27.279Z,67.42
2022-07-30T00:18:54.086Z,67.68
2022-07-30T00:21:35.852Z,68.14
2022-07-30T00:24:05.629Z,68.25
2022-07-30T00:26:32.418Z,68.08
2022-07-30T00:28:59.188Z,68.22
2022-07-30T00:31:26.080Z,68.17
2022-07-30T00:33:52.766Z,68.36
2022-07-30T00:36:19.463Z,68.74
2022-07-30T00:38:46.221Z,68.57
2022-07-30T00:41:12.983Z,69.03
2022-07-30T00:43:42.926Z,69.20
2022-07-30T00:46:09.691Z,69.25
2022-07-30T00:48:36.572Z,69.38
2022-07-30T00:51:03.314Z,69.81
2022-07-30T00:53:29.964Z,69.65
2022-07-30T00:55:56.701Z,69.86
2022-07-30T00:58:23.397Z,69.91
2022-07-30T01:00:50.118Z,70.51
2022-07-30T01:03:16.823Z,69.97
2022-07-30T01:05:43.492Z,70.16
2022-07-30T01:08:10.147Z,70.44
2022-07-30T01:10:36.881Z,70.46
2022-07-30T01:13:04.499Z,70.85
2022-07-30T01:15:31.445Z,71.34
2022-07-30T01:18:00.333Z,70.97
2022-07-30T01:21:05.649Z,71.65
2022-07-30T01:23:37.390Z,72.19
2022-07-30T01:26:04.807Z,72.00
2022-07-30T01:28:39.498Z,72.13
2022-07-30T01:31:07.138Z,72.51
2022-07-30T01:33:35.837Z,72.45
2022-07-30T01:36:03.160Z,73.33
2022-07-30T01:38:34.958Z,73.04
2022-07-30T01:41:02.851Z,73.41
2022-07-30T01:43:31.160Z,73.41
2022-07-30T01:45:58.185Z,73.66
2022-07-30T01:48:26.028Z,73.79
2022-07-30T01:50:55.052Z,73.59
2022-07-30T01:53:24.813Z,73.95
2022-07-30T01:55:52.301Z,74.23
2022-07-30T01:58:20.516Z,74.62
2022-07-30T02:00:49.533Z,74.46
2022-07-30T02:03:16.370Z,74.71
2022-07-30T02:05:51.125Z,74.84
2022-07-30T02:08:27.118Z,74.81
2022-07-30T02:11:08.133Z,75.33
2022-07-30T02:13:42.374Z,75.43
2022-07-30T02:16:24.644Z,75.34
2022-07-30T02:19:06.751Z,75.27
2022-07-30T02:21:38.360Z,75.33
2022-07-30T02:24:08.697Z,75.85
2022-07-30T02:26:36.272Z,75.90
2022-07-30T02:29:04.926Z,76.27
2022-07-30T02:31:34.447Z,76.54
2022-07-30T02:34:03.759Z,76.75
2022-07-30T02:36:31.425Z,76.63
2022-07-30T02:38:58.732Z,77.09
2022-07-30T02:41:27.393Z,77.19
2022-07-30T02:43:55.046Z,77.30
2022-07-30T02:46:23.265Z,77.53
2022-07-30T02:48:50.609Z,77.95
2022-07-30T02:51:17.761Z,77.97
2022-07-30T02:53:46.809Z,78.01
2022-07-30T02:56:16.083Z,78.19
2022-07-30T02:58:44.434Z,78.35
2022-07-30T03:01:12.371Z,78.54
2022-07-30T03:03:40.581Z,78.78
2022-07-30T03:06:07.918Z,78.81
2022-07-30T03:08:34.708Z,78.65
2022-07-30T03:11:03.351Z,79.02
2022-07-30T03:13:30.070Z,78.96
2022-07-30T03:15:58.548Z,79.22
2022-07-30T03:18:28.401Z,79.16
2022-07-30T03:20:56.799Z,79.27
2022-07-30T03:23:24.114Z,79.30
2022-07-30T03:25:55.039Z,79.96
2022-07-30T03:28:22.997Z,80.63
2022-07-30T03:30:50.633Z,80.12
2022-07-30T03:33:18.022Z,80.32
2022-07-30T03:35:47.274Z,80.22
2022-07-30T03:38:15.049Z,79.66
2022-07-30T03:40:42.715Z,79.95
2022-07-30T03:43:32.475Z,79.70
2022-07-30T03:45:57.994Z,80.00
2022-07-30T03:48:25.563Z,80.39
2022-07-30T03:50:52.207Z,80.41
2022-07-30T03:53:19.534Z,80.90
2022-07-30T03:55:46.242Z,81.06
2022-07-30T03:58:12.976Z,81.18
2022-07-30T04:00:40.954Z,81.73
2022-07-30T04:03:08.276Z,81.58
2022-07-30T04:05:37.404Z,81.58
2022-07-30T04:08:07.883Z,82.19
2022-07-30T04:10:34.714Z,82.69
2022-07-30T04:13:01.407Z,82.36
2022-07-30T04:16:37.798Z,83.23
2022-07-30T04:18:16.129Z,83.12
2022-07-30T04:20:45.224Z,83.44
2022-07-30T04:23:12.249Z,83.65
2022-07-30T04:25:40.373Z,83.69
2022-07-30T04:28:07.309Z,83.68
2022-07-30T04:30:35.054Z,84.04
2022-07-30T04:33:03.814Z,84.25
2022-07-30T04:35:50.985Z,84.00
2022-07-30T04:38:18.782Z,84.95
2022-07-30T04:40:46.014Z,85.01
2022-07-30T04:43:12.683Z,84.70
2022-07-30T04:45:40.461Z,85.02
2022-07-30T04:48:07.582Z,85.79
2022-07-30T04:50:36.424Z,86.27
2022-07-30T04:53:03.366Z,86.29
2022-07-30T04:55:30.804Z,86.20
2022-07-30T04:57:58.179Z,86.43
2022-07-30T05:00:24.914Z,86.77
2022-07-30T05:02:52.312Z,86.67
2022-07-30T05:05:19.280Z,86.97
2022-07-30T05:07:46.270Z,87.00
2022-07-30T05:10:13.630Z,87.57
2022-07-30T05:12:40.414Z,87.95
2022-07-30T05:15:09.482Z,87.74
2022-07-30T05:17:36.710Z,88.20
2022-07-30T05:20:04.383Z,88.37
2022-07-30T05:22:31.161Z,88.72
2022-07-30T05:24:58.301Z,89.13
2022-07-30T05:27:25.051Z,89.75
2022-07-30T05:29:52.168Z,89.73
2022-07-30T05:32:23.946Z,90.23
2022-07-30T05:34:53.733Z,90.47
2022-07-30T05:37:20.418Z,91.37
2022-07-30T05:39:59.267Z,92.04
2022-07-30T05:42:30.330Z,92.67
2022-07-30T05:44:57.123Z,92.44
2022-07-30T05:47:23.849Z,93.49
2022-07-30T05:49:50.584Z,93.49
2022-07-30T05:52:17.268Z,93.93
2022-07-30T05:54:43.963Z,94.37
2022-07-30T05:57:10.745Z,94.28
2022-07-30T05:59:37.465Z,94.54
2022-07-30T06:02:04.765Z,93.87
2022-07-30T06:04:31.482Z,94.55
2022-07-30T06:06:58.466Z,94.51
2022-07-30T06:09:26.419Z,94.48
2022-07-30T06:12:03.716Z,94.64
2022-07-30T06:14:32.296Z,94.76
2022-07-30T06:16:59.304Z,94.92
2022-07-30T06:19:26.645Z,95.35
2022-07-30T06:22:05.808Z,95.95
2022-07-30T06:24:34.001Z,95.83
2022-07-30T06:27:00.983Z,96.56
2022-07-30T06:29:27.936Z,96.50
2022-07-30T06:31:54.656Z,96.67
2022-07-30T06:34:21.595Z,95.89
2022-07-30T06:36:49.057Z,96.01
2022-07-30T06:39:53.790Z,95.91
2022-07-30T06:42:02.866Z,95.30
2022-07-30T06:44:30.169Z,95.20
2022-07-30T06:46:56.866Z,95.15
2022-07-30T06:49:23.621Z,94.79
2022-07-30T06:51:50.402Z,93.78
2022-07-30T06:54:17.362Z,93.56
2022-07-30T06:56:44.293Z,93.69
2022-07-30T06:59:10.947Z,92.80
2022-07-30T07:01:37.841Z,92.69
2022-07-30T07:04:04.874Z,92.06
2022-07-30T07:06:31.553Z,92.01
2022-07-30T07:08:58.221Z,91.46
2022-07-30T07:11:25.235Z,91.09
2022-07-30T07:13:52.034Z,90.16
2022-07-30T07:16:25.077Z,89.13
2022-07-30T07:18:52.612Z,88.67
2022-07-30T07:21:20.076Z,88.03
2022-07-30T07:23:48.671Z,87.42
2022-07-30T07:26:16.102Z,87.30
2022-07-30T07:28:43.239Z,86.66
2022-07-30T07:31:10.890Z,86.27
2022-07-30T07:33:38.088Z,86.14
2022-07-30T07:36:05.086Z,86.39
2022-07-30T07:38:31.768Z,86.16
2022-07-30T07:40:58.551Z,86.03
2022-07-30T07:43:25.455Z,85.60
2022-07-30T07:45:52.227Z,85.96
2022-07-30T07:48:19.550Z,85.33
2022-07-30T07:50:46.200Z,84.99
2022-07-30T07:53:13.042Z,84.98
2022-07-30T07:55:40.213Z,84.88
2022-07-30T07:58:06.972Z,84.21
2022-07-30T08:00:33.719Z,84.72
2022-07-30T08:03:00.435Z,84.35
2022-07-30T08:05:58.217Z,83.97
2022-07-30T08:08:14.239Z,83.31
2022-07-30T08:10:40.929Z,83.06
2022-07-30T08:13:49.134Z,83.44
2022-07-30T08:15:57.340Z,83.22
2022-07-30T08:18:24.189Z,83.27
2022-07-30T08:20:51.704Z,82.81
2022-07-30T08:23:19.413Z,83.02
2022-07-30T08:25:46.125Z,82.45
2022-07-30T08:28:35.354Z,82.90
2022-07-30T08:31:02.178Z,82.09
2022-07-30T08:33:29.424Z,81.69
2022-07-30T08:35:59.173Z,81.74
2022-07-30T08:38:30.824Z,80.91
2022-07-30T08:40:58.415Z,80.35
2022-07-30T08:43:26.311Z,80.19
2022-07-30T08:45:53.995Z,79.62
2022-07-30T08:48:22.570Z,79.48
2022-07-30T08:50:50.072Z,79.21
2022-07-30T08:53:17.573Z,79.32
2022-07-30T08:55:44.889Z,79.35
2022-07-30T08:58:24.725Z,78.28
2022-07-30T09:00:51.588Z,77.93
2022-07-30T09:03:18.416Z,77.33
2022-07-30T09:05:45.108Z,76.86
2022-07-30T09:08:11.825Z,75.66
2022-07-30T09:10:38.636Z,75.08
2022-07-30T09:13:43.221Z,73.93
2022-07-30T09:16:20.333Z,73.31
2022-07-30T09:18:47.180Z,72.45
2022-07-30T09:21:28.714Z,71.96
2022-07-30T09:23:56.405Z,70.86
2022-07-30T09:26:23.152Z,69.87
2022-07-30T09:28:49.825Z,68.67
2022-07-30T09:31:17.630Z,67.10
2022-07-30T09:33:45.432Z,66.06
2022-07-30T09:36:18.495Z,65.51
2022-07-30T09:38:51.718Z,64.92
2022-07-30T09:41:40.722Z,64.12
2022-07-30T09:44:07.785Z,62.89
2022-07-30T09:46:42.581Z,62.01
2022-07-30T09:49:20.359Z,61.03
2022-07-30T09:51:54.482Z,60.00
2022-07-30T09:54:52.037Z,58.92
2022-07-30T09:57:26.470Z,58.40
2022-07-30T10:00:00.011Z,57.11
2022-07-30T10:02:32.400Z,55.47
2022-07-30T10:05:14.459Z,54.09
2022-07-30T10:07:58.559Z,52.93
2022-07-30T10:10:31.195Z,51.50
2022-07-30T10:13:04.639Z,50.43
2022-07-30T10:15:33.584Z,50.56
2022-07-30T10:18:02.896Z,50.44
2022-07-30T10:20:34.869Z,50.64
2022-07-30T10:23:07.800Z,50.22
2022-07-30T10:25:36.897Z,50.13
2022-07-30T10:28:17.643Z,49.81
2022-07-30T10:30:45.374Z,49.36
2022-07-30T10:33:34.570Z,48.99
2022-07-30T10:35:59.368Z,49.30
2022-07-30T10:38:33.332Z,48.86
2022-07-30T10:41:08.854Z,47.66
2022-07-30T10:44:11.694Z,47.40
2022-07-30T10:47:06.506Z,47.36
2022-07-30T10:49:40.668Z,46.18
2022-07-30T10:52:08.773Z,45.96
2022-07-30T10:54:40.489Z,45.43
2022-07-30T10:57:14.666Z,46.08
2022-07-30T10:59:52.595Z,46.55
2022-07-30T11:02:20.646Z,46.81
2022-07-30T11:04:49.860Z,47.00
2022-07-30T11:07:25.408Z,46.74
2022-07-30T11:10:04.819Z,45.92
2022-07-30T11:12:46.175Z,45.39
2022-07-30T11:15:19.966Z,45.56
2022-07-30T11:18:04.789Z,45.07
2022-07-30T11:20:39.313Z,44.81
2022-07-30T11:23:14.022Z,44.72
2022-07-30T11:25:51.503Z,44.99
2022-07-30T11:28:41.777Z,44.48
2022-07-30T11:31:54.874Z,45.01
2022-07-30T11:34:18.892Z,44.39
2022-07-30T11:37:18.313Z,43.60
2022-07-30T11:39:57.683Z,43.63
2022-07-30T11:42:35.354Z,43.08
2022-07-30T11:45:17.256Z,43.33
2022-07-30T11:47:45.853Z,42.98
2022-07-30T11:50:19.231Z,42.34
2022-07-30T11:52:57.864Z,42.83
2022-07-30T11:55:33.672Z,43.22
2022-07-30T11:58:02.442Z,43.14
2022-07-30T12:00:40.800Z,43.69
2022-07-30T12:03:09.821Z,42.79
2022-07-30T12:05:36.583Z,42.10
2022-07-30T12:08:03.497Z,41.66
2022-07-30T12:10:30.231Z,41.58
2022-07-30T12:13:16.220Z,40.77
2022-07-30T12:15:47.433Z,40.81
2022-07-30T12:18:26.288Z,39.70
2022-07-30T12:20:55.334Z,39.59
2022-07-30T12:23:25.092Z,39.89
2022-07-30T12:25:52.262Z,40.02
2022-07-30T12:28:24.731Z,40.38
2022-07-30T12:30:52.559Z,40.33
2022-07-30T12:33:20.447Z,40.23
2022-07-30T12:35:55.389Z,40.59
2022-07-30T12:38:23.423Z,40.40
2022-07-30T12:41:03.584Z,40.70
2022-07-30T12:43:48.619Z,40.90
2022-07-30T12:46:26.855Z,41.46
2022-07-30T12:49:19.152Z,41.35
2022-07-30T12:52:00.421Z,41.70
2022-07-30T12:54:27.940Z,41.90
2022-07-30T12:57:03.244Z,41.69
2022-07-30T12:59:31.744Z,41.86
2022-07-30T13:02:00.710Z,42.12
2022-07-30T13:04:28.122Z,42.07
2022-07-30T13:07:05.534Z,41.79
2022-07-30T13:09:32.514Z,42.23
2022-07-30T13:11:59.375Z,42.06
2022-07-30T13:14:27.226Z,42.25
2022-07-30T13:16:56.050Z,41.56
2022-07-30T13:19:23.064Z,42.14
2022-07-30T13:21:50.230Z,42.20
2022-07-30T13:24:18.388Z,42.02
2022-07-30T13:26:45.536Z,41.34
2022-07-30T13:29:13.682Z,41.48
2022-07-30T13:31:43.155Z,41.35
2022-07-30T13:34:10.861Z,41.56
2022-07-30T13:36:37.515Z,41.61
2022-07-30T13:39:04.497Z,41.15
2022-07-30T13:41:31.252Z,41.45
2022-07-30T13:43:58.013Z,41.65
2022-07-30T13:46:24.768Z,41.74
2022-07-30T13:48:52.251Z,41.19
2022-07-30T13:51:19.014Z,41.23
2022-07-30T13:53:45.944Z,41.54
2022-07-30T13:56:13.169Z,41.39
2022-07-30T13:58:40.394Z,41.66
2022-07-30T14:01:07.558Z,41.82
2022-07-30T14:03:35.399Z,41.94
2022-07-30T14:06:10.500Z,41.08
2022-07-30T14:08:37.937Z,41.09
2022-07-30T14:11:04.681Z,40.93
2022-07-30T14:13:31.409Z,40.74
2022-07-30T14:15:58.220Z,40.85
2022-07-30T14:18:24.939Z,40.84
2022-07-30T14:20:53.782Z,41.09
2022-07-30T14:23:20.808Z,40.72
2022-07-30T14:25:47.740Z,41.09
2022-07-30T14:28:14.862Z,40.79
2022-07-30T14:30:42.176Z,40.41
2022-07-30T14:33:08.986Z,40.37
2022-07-30T14:35:35.690Z,40.95
2022-07-30T14:38:03.716Z,41.62
2022-07-30T14:40:30.635Z,41.53
2022-07-30T14:42:58.043Z,40.98
2022-07-30T14:45:25.539Z,41.28
2022-07-30T14:47:52.540Z,41.35
2022-07-30T14:50:19.547Z,41.41
2022-07-30T14:52:47.627Z,41.03
2022-07-30T14:55:14.676Z,41.56
2022-07-30T14:57:43.550Z,41.37
2022-07-30T15:00:12.861Z,40.92
2022-07-30T15:02:40.984Z,40.81
2022-07-30T15:05:08.757Z,40.24
2022-07-30T15:07:35.451Z,40.41
2022-07-30T15:10:09.335Z,40.32
2022-07-30T15:12:39.513Z,40.12
2022-07-30T15:15:08.427Z,39.99
2022-07-30T15:17:39.791Z,40.47
2022-07-30T15:20:09.254Z,40.69
2022-07-30T15:22:36.448Z,40.33
2022-07-30T15:25:03.181Z,40.68
2022-07-30T15:27:33.948Z,40.61
2022-07-30T15:30:01.150Z,39.86
2022-07-30T15:32:27.780Z,40.01
2022-07-30T15:35:05.118Z,39.87
2022-07-30T15:37:31.824Z,39.69
2022-07-30T15:39:58.762Z,40.15
2022-07-30T15:42:27.464Z,40.18
2022-07-30T15:45:15.336Z,40.22
2022-07-30T15:47:40.872Z,40.81
2022-07-30T15:50:08.349Z,40.92
2022-07-30T15:52:36.699Z,40.83
2022-07-30T15:55:05.194Z,41.08
2022-07-30T15:57:32.024Z,41.01
2022-07-30T15:59:59.297Z,41.31
2022-07-30T16:02:28.415Z,41.47
2022-07-30T16:04:56.925Z,41.82
2022-07-30T16:07:23.662Z,41.84
2022-07-30T16:09:50.337Z,41.88
2022-07-30T16:12:17.015Z,42.11
2022-07-30T16:14:43.830Z,41.96
2022-07-30T16:17:14.222Z,42.25
2022-07-30T16:19:45.090Z,42.04
2022-07-30T16:22:12.880Z,42.05
2022-07-30T16:24:50.064Z,42.81
2022-07-30T16:27:16.825Z,43.35
2022-07-30T16:29:43.488Z,43.22
2022-07-30T16:32:10.242Z,43.93
2022-07-30T16:34:38.929Z,43.92
2022-07-30T16:37:05.681Z,44.30
2022-07-30T16:39:36.913Z,44.20
2022-07-30T16:42:06.687Z,44.20
2022-07-30T16:44:34.569Z,44.38
2022-07-30T16:47:01.264Z,44.54
2022-07-30T16:49:28.121Z,44.42
2022-07-30T16:51:55.039Z,44.63
2022-07-30T16:54:21.696Z,44.37
2022-07-30T16:56:52.805Z,44.69
2022-07-30T16:59:20.611Z,44.16
2022-07-30T17:01:48.137Z,44.60
2022-07-30T17:04:15.207Z,43.71
2022-07-30T17:06:44.134Z,44.10
2022-07-30T17:09:12.083Z,45.14
2022-07-30T17:11:47.380Z,44.72
2022-07-30T17:14:19.146Z,44.63
2022-07-30T17:16:45.960Z,44.73
2022-07-30T17:19:15.332Z,45.37
2022-07-30T17:21:42.147Z,45.50
2022-07-30T17:24:14.094Z,45.43
2022-07-30T17:26:43.694Z,45.64
2022-07-30T17:29:15.338Z,45.82
2022-07-30T17:31:44.478Z,45.81
2022-07-30T17:34:13.948Z,46.57
2022-07-30T17:36:42.659Z,46.15
2022-07-30T17:40:18.750Z,46.25
2022-07-30T17:42:04.589Z,46.52
2022-07-30T17:44:31.334Z,46.74
2022-07-30T17:46:58.004Z,46.64
2022-07-30T17:49:24.972Z,46.83
2022-07-30T17:51:51.677Z,46.86
2022-07-30T17:54:18.405Z,46.37
2022-07-30T17:56:47.777Z,46.35
2022-07-30T17:59:14.533Z,46.13
2022-07-30T18:01:41.418Z,46.44
2022-07-30T18:04:08.288Z,46.24
2022-07-30T18:06:35.353Z,46.35
2022-07-30T18:09:03.036Z,46.82
2022-07-30T18:11:29.825Z,46.35
2022-07-30T18:13:56.973Z,46.14
2022-07-30T18:16:24.782Z,46.61
2022-07-30T18:18:51.594Z,46.46
2022-07-30T18:21:18.525Z,46.80
2022-07-30T18:23:45.443Z,46.68
2022-07-30T18:26:12.727Z,46.37
2022-07-30T18:28:39.495Z,46.39
2022-07-30T18:31:06.477Z,46.70
2022-07-30T18:33:33.302Z,46.58
2022-07-30T18:36:00.079Z,46.56
2022-07-30T18:38:26.775Z,47.04
2022-07-30T18:40:59.402Z,47.08
2022-07-30T18:43:27.803Z,47.47
2022-07-30T18:45:55.632Z,47.44
2022-07-30T18:48:29.039Z,47.80
2022-07-30T18:50:55.705Z,47.96
2022-07-30T18:53:22.369Z,48.40
2022-07-30T18:55:49.129Z,48.32
2022-07-30T18:58:15.948Z,48.06
2022-07-30T19:00:44.215Z,48.57
2022-07-30T19:03:16.318Z,48.64
2022-07-30T19:05:44.387Z,48.52
2022-07-30T19:08:11.076Z,48.72
2022-07-30T19:10:37.875Z,48.56
2022-07-30T19:13:05.528Z,48.51
2022-07-30T19:15:32.376Z,48.75
2022-07-30T19:17:59.429Z,48.77
2022-07-30T19:20:26.785Z,49.01
2022-07-30T19:23:05.329Z,49.03
2022-07-30T19:25:33.939Z,49.28
2022-07-30T19:28:02.444Z,49.06
2022-07-30T19:30:30.442Z,49.10
2022-07-30T19:33:14.228Z,49.36
2022-07-30T19:35:46.922Z,49.69
2022-07-30T19:38:23.719Z,49.17
2022-07-30T19:40:51.043Z,49.26
2022-07-30T19:43:23.836Z,49.64
2022-07-30T19:45:51.361Z,49.54
2022-07-30T19:48:29.486Z,49.66
2022-07-30T19:53:53.367Z,49.41
2022-07-30T19:56:20.221Z,49.42
2022-07-30T19:58:50.172Z,49.68
2022-07-30T20:01:16.875Z,49.83
2022-07-30T20:03:45.935Z,49.53
2022-07-30T20:06:15.956Z,49.50
2022-07-30T20:09:00.410Z,49.62
2022-07-30T20:11:36.054Z,49.69
2022-07-30T20:14:03.406Z,49.87
2022-07-30T20:16:30.150Z,50.11
2022-07-30T20:18:59.314Z,50.67
2022-07-30T20:21:57.806Z,50.18
2022-07-30T20:24:15.390Z,50.44
2022-07-30T20:26:42.286Z,51.36
2022-07-30T20:29:19.014Z,51.17
2022-07-30T20:31:46.405Z,51.42
2022-07-30T20:34:23.559Z,50.94
2022-07-30T20:37:04.336Z,51.62
2022-07-30T20:39:42.650Z,51.28
2022-07-30T20:42:13.936Z,51.95
2022-07-30T20:44:50.693Z,51.87
2022-07-30T20:47:34.871Z,52.13
2022-07-30T20:50:10.705Z,51.73
2022-07-30T20:52:40.489Z,51.94
2022-07-30T20:55:09.260Z,52.12
2022-07-30T20:57:56.406Z,51.85
2022-07-30T21:00:23.400Z,52.31
2022-07-30T21:02:52.159Z,51.63
2022-07-30T21:05:20.064Z,52.35
2022-07-30T21:07:47.034Z,51.74
2022-07-30T21:10:14.586Z,52.34
2022-07-30T21:12:44.844Z,52.34
2022-07-30T21:15:23.874Z,52.60
2022-07-30T21:17:51.535Z,52.57
2022-07-30T21:20:27.542Z,52.33
2022-07-30T21:22:56.073Z,52.22
2022-07-30T21:25:32.562Z,52.33
2022-07-30T21:28:02.841Z,52.69
2022-07-30T21:30:30.854Z,52.66
2022-07-30T21:32:58.305Z,53.19
2022-07-30T21:35:25.453Z,53.59
2022-07-30T21:37:59.396Z,53.70
2022-07-30T21:40:28.673Z,53.69
2022-07-30T21:42:56.215Z,53.59
2022-07-30T21:45:27.003Z,54.04
2022-07-30T21:48:07.305Z,54.26
2022-07-30T21:50:33.993Z,53.68
2022-07-30T21:53:01.175Z,53.92
2022-07-30T21:55:27.977Z,53.88
2022-07-30T21:58:00.236Z,54.21
2022-07-30T22:00:48.582Z,54.00
2022-07-30T22:04:03.044Z,54.56
2022-07-30T22:06:05.054Z,54.46
2022-07-30T22:08:39.266Z,54.45
2022-07-30T22:11:09.092Z,54.37
2022-07-30T22:13:53.493Z,54.37
2022-07-30T22:16:21.964Z,54.58
2022-07-30T22:18:50.021Z,54.28
2022-07-30T22:21:18.490Z,55.05
2022-07-30T22:23:54.782Z,54.98
2022-07-30T22:26:28.341Z,55.40
2022-07-30T22:28:55.369Z,55.47
2022-07-30T22:31:24.541Z,55.58
2022-07-30T22:33:57.720Z,55.86
2022-07-30T22:36:24.662Z,55.94
2022-07-30T22:38:58.545Z,55.81
2022-07-30T22:41:28.785Z,56.76
2022-07-30T22:43:58.372Z,56.67
2022-07-30T22:46:30.972Z,56.71
2022-07-30T22:48:58.008Z,56.87
2022-07-30T22:51:26.189Z,57.54
2022-07-30T22:57:04.078Z,57.45
2022-07-30T23:00:00.062Z,57.56
2022-07-30T23:02:17.863Z,57.66
2022-07-30T23:04:44.769Z,57.92
2022-07-30T23:07:14.003Z,58.16
2022-07-30T23:09:52.004Z,57.48
2022-07-30T23:12:15.155Z,49.50
2022-07-30T23:12:20.142Z,57.67
2022-07-30T23:12:30.761Z,57.71
2022-07-30T23:14:48.795Z,57.62
2022-07-30T23:17:15.507Z,57.47
2022-07-30T23:19:42.181Z,57.43
2022-07-30T23:22:12.255Z,57.28
2022-07-30T23:24:39.040Z,57.45
2022-07-30T23:27:06.421Z,57.23
2022-07-30T23:29:33.284Z,57.41
2022-07-30T23:31:59.964Z,56.90
2022-07-30T23:34:26.736Z,56.64
2022-07-30T23:36:57.125Z,57.06
2022-07-30T23:39:24.885Z,56.64
2022-07-30T23:41:51.605Z,56.77
2022-07-30T23:44:18.368Z,56.58
2022-07-30T23:46:45.042Z,56.75
2022-07-30T23:49:11.801Z,56.51
2022-07-30T23:51:39.135Z,56.90
2022-07-30T23:54:06.497Z,56.87
2022-07-30T23:56:33.244Z,56.81
2022-07-30T23:59:00.576Z,56.84
